Time;durP1;ratioP1;P1;durP2;ratioP2;P2;SDS_P1;SDS_P2;PMS_P1;PMS_P2;Temp;Humidity;BMP_temperature;BMP_pressure;BME280_temperature;BME280_humidity;BME280_pressure;Samples;Min_cycle;Max_cycle;Signal;HPM_P1;HPM_P2
2021/03/16 00:00:36;;;;;;;5.80;2.93;;;5.50;84.30;;;;;;5030324;28;20608;-72
2021/03/16 00:03:02;;;;;;;7.23;2.90;;;5.50;83.80;;;;;;5048180;28;20236;-72
2021/03/16 00:05:28;;;;;;;8.30;3.00;;;5.50;84.30;;;;;;5049955;28;21303;-71
2021/03/16 00:07:53;;;;;;;6.77;2.60;;;5.50;84.10;;;;;;5034226;28;20216;-72
2021/03/16 00:10:19;;;;;;;4.50;2.63;;;5.50;84.10;;;;;;5029899;28;20290;-71
2021/03/16 00:12:45;;;;;;;6.10;2.70;;;5.60;84.30;;;;;;5028774;28;20295;-71
2021/03/16 00:15:12;;;;;;;9.00;2.93;;;5.60;83.40;;;;;;5028504;28;20684;-71
2021/03/16 00:17:38;;;;;;;13.17;3.07;;;5.50;82.80;;;;;;5031207;28;20185;-71
2021/03/16 00:20:04;;;;;;;6.83;2.93;;;5.50;83.00;;;;;;5029987;28;20941;-73
2021/03/16 00:22:31;;;;;;;7.17;2.93;;;5.40;83.30;;;;;;5030783;28;21030;-73
2021/03/16 00:24:56;;;;;;;3.90;2.00;;;5.40;83.60;;;;;;5037741;28;20487;-72
2021/03/16 00:27:22;;;;;;;4.00;2.43;;;5.50;83.70;;;;;;5036674;28;20435;-72
2021/03/16 00:29:48;;;;;;;4.90;2.60;;;5.50;83.70;;;;;;5040510;28;20243;-72
2021/03/16 00:32:14;;;;;;;4.37;2.93;;;5.60;83.70;;;;;;5043858;28;20264;-72
2021/03/16 00:34:39;;;;;;;8.70;3.03;;;5.50;83.60;;;;;;5036968;28;20740;-73
2021/03/16 00:37:05;;;;;;;7.00;2.80;;;5.50;83.40;;;;;;5034391;28;20706;-72
2021/03/16 00:39:31;;;;;;;11.73;4.00;;;5.50;83.60;;;;;;5039924;28;20238;-72
2021/03/16 00:41:57;;;;;;;6.50;2.93;;;5.40;84.00;;;;;;5036458;28;20848;-72
2021/03/16 00:44:22;;;;;;;5.57;2.70;;;5.40;84.10;;;;;;5043213;28;20684;-71
2021/03/16 00:46:48;;;;;;;5.53;3.23;;;5.40;83.80;;;;;;5037365;28;20322;-73
2021/03/16 00:49:14;;;;;;;5.00;3.20;;;5.40;83.30;;;;;;5041054;28;20209;-71
2021/03/16 00:51:40;;;;;;;7.63;3.17;;;5.40;83.30;;;;;;5037333;28;20185;-72
2021/03/16 00:54:05;;;;;;;8.40;2.70;;;5.40;82.80;;;;;;5038276;28;20228;-72
2021/03/16 00:56:31;;;;;;;9.20;2.80;;;5.40;82.70;;;;;;5043327;28;20459;-72
2021/03/16 00:58:57;;;;;;;9.93;2.90;;;5.50;83.00;;;;;;5039577;28;20192;-72
2021/03/16 01:01:23;;;;;;;8.10;2.90;;;5.40;80.60;;;;;;5032834;28;20665;-72
2021/03/16 01:03:48;;;;;;;8.60;2.97;;;5.40;80.80;;;;;;5039025;28;20486;-71
2021/03/16 01:06:14;;;;;;;4.60;2.67;;;5.40;81.20;;;;;;5036006;28;20288;-72
2021/03/16 01:08:40;;;;;;;7.57;2.90;;;5.40;81.10;;;;;;5039374;28;20225;-72
2021/03/16 01:11:06;;;;;;;8.93;3.20;;;5.40;79.60;;;;;;5042559;28;20224;-72
2021/03/16 01:13:32;;;;;;;5.30;2.60;;;5.30;79.70;;;;;;5029267;28;20201;-71
2021/03/16 01:15:58;;;;;;;5.20;3.27;;;5.30;79.00;;;;;;5041801;28;20668;-71
2021/03/16 01:18:24;;;;;;;8.40;2.67;;;5.30;78.70;;;;;;5039070;28;20447;-72
2021/03/16 01:20:49;;;;;;;5.27;2.70;;;5.40;79.20;;;;;;5036410;28;20458;-72
2021/03/16 01:23:15;;;;;;;5.20;2.77;;;5.40;79.50;;;;;;5031670;28;21104;-71
2021/03/16 01:25:41;;;;;;;4.20;2.40;;;5.40;79.00;;;;;;5030497;28;20223;-72
2021/03/16 01:28:07;;;;;;;5.53;2.77;;;5.30;79.00;;;;;;5044082;28;20197;-72
2021/03/16 01:30:33;;;;;;;8.90;2.77;;;5.30;78.90;;;;;;5048734;28;20224;-72
2021/03/16 01:32:59;;;;;;;6.20;2.53;;;5.40;79.30;;;;;;5043963;28;20451;-72
2021/03/16 01:35:25;;;;;;;5.23;2.60;;;5.40;79.30;;;;;;5048333;28;20438;-71
2021/03/16 01:37:56;;;;;;;5.63;2.73;;;5.30;79.30;;;;;;5036046;28;20177;-71
2021/03/16 01:40:36;;;;;;;6.20;2.40;;;5.30;79.90;;;;;;5051089;28;21825;-72
2021/03/16 01:43:11;;;;;;;11.70;2.90;;;5.30;80.20;;;;;;5053121;28;20529;-71
2021/03/16 01:45:39;;;;;;;4.43;2.40;;;5.30;80.60;;;;;;5052713;28;20500;-71
2021/03/16 01:48:05;;;;;;;7.60;3.03;;;5.40;80.80;;;;;;5051903;28;20467;-71
2021/03/16 01:50:32;;;;;;;5.27;3.40;;;5.30;80.80;;;;;;5032426;28;20992;-72
2021/03/16 01:52:58;;;;;;;4.40;3.00;;;5.30;81.20;;;;;;5032248;28;20965;-72
2021/03/16 01:55:25;;;;;;;8.07;2.97;;;5.20;81.70;;;;;;5057513;28;20468;-71
2021/03/16 01:57:54;;;;;;;7.03;3.17;;;5.30;81.90;;;;;;5060374;28;20457;-71
2021/03/16 02:00:20;;;;;;;8.67;3.67;;;5.20;82.20;;;;;;5048160;28;20426;-71
2021/03/16 02:02:46;;;;;;;8.93;3.30;;;5.20;82.40;;;;;;5049481;28;20494;-70
2021/03/16 02:05:13;;;;;;;5.17;2.93;;;5.30;83.10;;;;;;5044166;28;20463;-73
2021/03/16 02:07:44;;;;;;;9.30;3.90;;;5.20;83.10;;;;;;5030618;28;20431;-71
2021/03/16 02:10:30;;;;;;;9.30;4.27;;;5.20;83.40;;;;;;5032557;28;20455;-72
2021/03/16 02:13:02;;;;;;;8.33;3.00;;;5.20;83.60;;;;;;5029706;28;20533;-71
2021/03/16 02:15:35;;;;;;;7.20;3.13;;;5.20;83.80;;;;;;5044108;28;20418;-71
2021/03/16 02:18:08;;;;;;;9.30;3.23;;;5.20;84.10;;;;;;5051083;28;20435;-71
2021/03/16 02:20:57;;;;;;;8.00;3.30;;;5.20;83.70;;;;;;5040758;28;20436;-71
2021/03/16 02:24:05;;;;;;;7.70;3.43;;;5.10;83.60;;;;;;5035493;28;20467;-72
2021/03/16 02:26:49;;;;;;;7.83;3.40;;;5.10;84.00;;;;;;5030393;28;20767;-72
2021/03/16 02:29:18;;;;;;;11.03;2.87;;;5.10;84.40;;;;;;5039193;28;20879;-71
2021/03/16 02:31:52;;;;;;;8.40;3.30;;;5.10;83.70;;;;;;5037545;28;20784;-71
2021/03/16 02:34:18;;;;;;;6.27;3.37;;;5.00;84.10;;;;;;5043812;28;20533;-72
2021/03/16 02:36:46;;;;;;;10.37;3.00;;;5.00;84.60;;;;;;5042707;28;20467;-71
2021/03/16 02:39:14;;;;;;;5.70;3.00;;;5.10;84.60;;;;;;5029387;28;20452;-72
2021/03/16 02:41:43;;;;;;;5.90;3.17;;;5.00;84.30;;;;;;5039463;28;20452;-72
2021/03/16 02:44:09;;;;;;;6.07;3.27;;;4.80;84.70;;;;;;5036058;28;20978;-71
2021/03/16 02:46:40;;;;;;;7.40;3.70;;;4.90;84.70;;;;;;5042746;28;20506;-72
2021/03/16 02:49:06;;;;;;;8.60;3.00;;;4.90;84.70;;;;;;5046585;28;20474;-72
2021/03/16 02:51:32;;;;;;;4.97;2.67;;;4.90;85.00;;;;;;5031390;28;20828;-72
2021/03/16 02:53:59;;;;;;;5.43;2.70;;;5.00;85.20;;;;;;5031361;28;20508;-72
2021/03/16 02:56:25;;;;;;;6.10;2.80;;;4.90;85.20;;;;;;5032273;28;20458;-72
2021/03/16 02:58:53;;;;;;;8.97;3.30;;;4.90;85.50;;;;;;5037533;28;20419;-70
2021/03/16 03:01:20;;;;;;;6.60;3.13;;;5.00;85.70;;;;;;5052496;28;20931;-71
2021/03/16 03:03:47;;;;;;;4.57;2.87;;;4.90;86.80;;;;;;5023706;28;20444;-70
2021/03/16 03:06:17;;;;;;;9.53;3.60;;;4.80;87.70;;;;;;5027452;28;20419;-72
2021/03/16 03:08:46;;;;;;;6.80;3.37;;;4.80;88.60;;;;;;5030724;28;20509;-71
2021/03/16 03:11:12;;;;;;;4.43;3.20;;;4.70;88.90;;;;;;5028546;28;20454;-70
2021/03/16 03:13:39;;;;;;;5.70;2.53;;;4.70;89.00;;;;;;5040321;28;20451;-72
2021/03/16 03:16:05;;;;;;;7.77;3.50;;;4.60;88.60;;;;;;5033211;28;20424;-71
2021/03/16 03:18:31;;;;;;;6.03;3.50;;;4.60;88.10;;;;;;5032360;28;20416;-69
2021/03/16 03:21:05;;;;;;;5.03;3.23;;;4.50;88.40;;;;;;5044768;28;20431;-70
2021/03/16 03:23:33;;;;;;;8.03;3.60;;;4.50;88.30;;;;;;5043415;28;20827;-71
2021/03/16 03:26:09;;;;;;;10.70;2.73;;;4.60;88.90;;;;;;5046827;28;20987;-70
2021/03/16 03:28:35;;;;;;;5.70;3.03;;;4.70;88.70;;;;;;5043526;28;20435;-71
2021/03/16 03:31:05;;;;;;;4.70;2.63;;;4.80;88.00;;;;;;5032167;28;20547;-69
2021/03/16 03:33:32;;;;;;;11.23;3.30;;;4.80;87.70;;;;;;5029573;28;20451;-72
2021/03/16 03:36:01;;;;;;;5.17;2.50;;;4.80;87.40;;;;;;5021501;28;20439;-70
2021/03/16 03:38:28;;;;;;;7.67;3.13;;;4.80;86.90;;;;;;5030776;28;20963;-70
2021/03/16 03:40:56;;;;;;;7.87;3.27;;;4.80;87.10;;;;;;5037621;28;20791;-71
2021/03/16 03:43:23;;;;;;;10.10;3.40;;;4.70;88.30;;;;;;5035691;28;20443;-71
2021/03/16 03:45:54;;;;;;;5.83;2.83;;;4.70;89.00;;;;;;5031636;28;20416;-71
2021/03/16 03:48:21;;;;;;;6.40;3.30;;;4.70;89.00;;;;;;5047238;28;20468;-69
2021/03/16 03:50:51;;;;;;;13.60;3.10;;;4.60;88.60;;;;;;5041509;28;20550;-71
2021/03/16 03:53:18;;;;;;;10.07;3.03;;;4.60;87.40;;;;;;5043938;28;20443;-69
2021/03/16 03:55:46;;;;;;;8.87;3.33;;;4.60;87.60;;;;;;5030576;28;20438;-71
2021/03/16 03:58:13;;;;;;;6.83;3.20;;;4.60;87.70;;;;;;5044850;28;20427;-70
2021/03/16 04:00:40;;;;;;;7.47;3.20;;;4.60;87.40;;;;;;5035007;28;20434;-70
2021/03/16 04:03:06;;;;;;;9.57;2.73;;;4.60;87.30;;;;;;5033650;28;20452;-69
2021/03/16 04:05:33;;;;;;;7.50;2.47;;;4.70;86.80;;;;;;5018264;28;20942;-72
2021/03/16 04:08:01;;;;;;;6.73;2.80;;;4.70;86.00;;;;;;5045500;28;20441;-72
2021/03/16 04:10:27;;;;;;;7.13;2.33;;;4.60;85.50;;;;;;5054390;28;21067;-69
2021/03/16 04:12:53;;;;;;;4.47;2.30;;;4.60;85.60;;;;;;5039817;28;20455;-71
2021/03/16 04:15:19;;;;;;;6.60;2.33;;;4.60;85.70;;;;;;5051277;28;20191;-72
2021/03/16 04:17:46;;;;;;;10.90;3.00;;;4.70;86.00;;;;;;5036634;28;20424;-70
2021/03/16 04:20:14;;;;;;;5.30;2.73;;;4.70;86.20;;;;;;5051370;28;20453;-70
2021/03/16 04:22:41;;;;;;;4.43;2.30;;;4.60;85.90;;;;;;5038194;28;20518;-70
2021/03/16 04:25:08;;;;;;;9.70;2.50;;;4.60;86.60;;;;;;5041066;28;20913;-71
2021/03/16 04:27:34;;;;;;;10.30;2.13;;;4.60;86.60;;;;;;5053969;28;20438;-71
2021/03/16 04:30:00;;;;;;;7.67;2.77;;;4.60;88.00;;;;;;5054869;28;20973;-71
2021/03/16 04:32:26;;;;;;;8.07;2.40;;;4.60;88.60;;;;;;5038523;28;20185;-71
2021/03/16 04:34:52;;;;;;;5.53;2.30;;;4.60;88.00;;;;;;5013524;28;20419;-72
2021/03/16 04:37:18;;;;;;;5.90;2.73;;;4.50;87.40;;;;;;5037818;28;20180;-72
2021/03/16 04:39:44;;;;;;;7.50;2.50;;;4.50;88.10;;;;;;5038208;28;20423;-71
2021/03/16 04:42:10;;;;;;;8.13;2.60;;;4.50;88.70;;;;;;5052118;28;20434;-72
2021/03/16 04:44:36;;;;;;;6.43;2.57;;;4.50;88.70;;;;;;5043636;28;20459;-71
2021/03/16 04:47:02;;;;;;;4.40;2.40;;;4.50;88.90;;;;;;5033422;28;20979;-72
2021/03/16 04:49:28;;;;;;;10.43;2.70;;;4.40;88.00;;;;;;5042095;28;20212;-72
2021/03/16 04:51:54;;;;;;;7.20;2.17;;;4.30;87.70;;;;;;5032804;28;20435;-72
2021/03/16 04:54:19;;;;;;;4.80;2.30;;;4.40;87.10;;;;;;5053202;28;20431;-71
2021/03/16 04:56:45;;;;;;;6.50;2.07;;;4.30;87.30;;;;;;5060382;28;20180;-71
2021/03/16 04:59:11;;;;;;;16.10;2.63;;;4.40;87.10;;;;;;5054383;28;20822;-71
2021/03/16 05:01:37;;;;;;;9.70;2.53;;;4.30;86.90;;;;;;5042699;28;20181;-71
2021/03/16 05:04:03;;;;;;;6.50;2.30;;;4.40;86.90;;;;;;5042412;28;20209;-72
2021/03/16 05:06:28;;;;;;;5.97;2.30;;;4.40;86.90;;;;;;5046491;28;20933;-73
2021/03/16 05:08:56;;;;;;;5.33;2.80;;;4.50;87.00;;;;;;5045045;28;20556;-70
2021/03/16 05:11:23;;;;;;;6.60;2.30;;;4.50;86.90;;;;;;5056715;28;20208;-72
2021/03/16 05:13:49;;;;;;;5.53;2.93;;;4.40;86.30;;;;;;5056111;28;20439;-72
2021/03/16 05:16:15;;;;;;;7.83;2.53;;;4.40;86.60;;;;;;5037808;28;20451;-71
2021/03/16 05:18:41;;;;;;;5.40;2.40;;;4.40;86.80;;;;;;5034808;28;20455;-72
2021/03/16 05:21:07;;;;;;;6.00;2.70;;;4.40;86.30;;;;;;5034977;28;20431;-72
2021/03/16 05:23:32;;;;;;;12.97;2.90;;;4.40;86.20;;;;;;5032520;28;20219;-71
2021/03/16 05:25:58;;;;;;;10.50;2.40;;;4.40;85.70;;;;;;5036288;28;20592;-71
2021/03/16 05:28:24;;;;;;;7.93;2.17;;;4.40;85.60;;;;;;5043692;28;20677;-71
2021/03/16 05:30:50;;;;;;;4.43;2.13;;;4.50;85.70;;;;;;5039727;28;20235;-70
2021/03/16 05:33:19;;;;;;;4.70;2.03;;;4.40;85.50;;;;;;5034099;28;20244;-71
2021/03/16 05:35:45;;;;;;;13.00;2.43;;;4.40;85.70;;;;;;5046015;28;20188;-70
2021/03/16 05:38:11;;;;;;;10.30;2.93;;;4.50;86.00;;;;;;5043138;28;20796;-71
2021/03/16 05:40:36;;;;;;;4.13;2.10;;;4.50;85.70;;;;;;5040653;28;20431;-71
2021/03/16 05:43:02;;;;;;;9.87;2.53;;;4.60;85.70;;;;;;5053686;28;20218;-70
2021/03/16 05:45:28;;;;;;;6.90;2.50;;;4.60;85.20;;;;;;5037104;28;20196;-71
2021/03/16 05:47:56;;;;;;;7.03;2.80;;;4.60;85.20;;;;;;5034368;28;20215;-71
2021/03/16 05:50:22;;;;;;;7.30;2.50;;;4.60;85.00;;;;;;5018179;28;20487;-72
2021/03/16 05:52:52;;;;;;;10.07;2.83;;;4.50;84.60;;;;;;5013503;28;20444;-71
2021/03/16 05:55:18;;;;;;;6.77;3.70;;;4.60;85.00;;;;;;5029352;28;20435;-71
2021/03/16 05:57:44;;;;;;;5.10;2.37;;;4.70;84.70;;;;;;5032643;28;20435;-72
2021/03/16 06:00:10;;;;;;;7.73;2.60;;;4.70;84.60;;;;;;5034002;28;20625;-71
2021/03/16 06:02:37;;;;;;;10.20;2.40;;;4.70;84.40;;;;;;5033694;28;20217;-71
2021/03/16 06:05:04;;;;;;;5.40;4.07;;;4.70;84.90;;;;;;5023588;28;20519;-70
2021/03/16 06:07:30;;;;;;;5.67;2.53;;;4.80;84.70;;;;;;5030562;28;20455;-70
2021/03/16 06:09:56;;;;;;;12.80;2.40;;;4.80;84.70;;;;;;5046983;28;20479;-72
2021/03/16 06:12:35;;;;;;;5.03;2.33;;;4.80;84.10;;;;;;5042500;28;20195;-71
2021/03/16 06:15:21;;;;;;;6.33;2.00;;;4.80;83.70;;;;;;5051025;28;21055;-71
2021/03/16 06:17:52;;;;;;;7.37;2.30;;;4.70;84.10;;;;;;5050100;28;20426;-71
2021/03/16 06:20:27;;;;;;;9.20;2.30;;;4.70;84.40;;;;;;5045068;28;20431;-70
2021/03/16 06:23:13;;;;;;;8.90;2.63;;;4.80;84.60;;;;;;5032630;28;20847;-71
2021/03/16 06:25:44;;;;;;;6.40;2.73;;;4.80;84.10;;;;;;5032641;28;20534;-70
2021/03/16 06:28:13;;;;;;;15.47;3.40;;;4.80;84.60;;;;;;5026670;28;20447;-73
2021/03/16 06:30:39;;;;;;;7.20;3.03;;;4.80;84.70;;;;;;5016552;28;20464;-77
2021/03/16 06:33:20;;;;;;;10.53;2.83;;;4.80;85.00;;;;;;5046238;28;20867;-77
2021/03/16 06:35:59;;;;;;;9.10;2.80;;;4.80;84.90;;;;;;5032937;28;20517;-76
2021/03/16 06:38:26;;;;;;;13.33;3.17;;;4.80;84.90;;;;;;5032012;28;20428;-77
2021/03/16 06:40:52;;;;;;;5.90;3.10;;;4.80;85.00;;;;;;5034633;28;20428;-77
2021/03/16 06:43:21;;;;;;;9.27;3.07;;;4.80;85.20;;;;;;5033345;28;20448;-77
2021/03/16 06:45:53;;;;;;;6.83;3.03;;;4.80;85.50;;;;;;5033669;28;20420;-76
2021/03/16 06:48:24;;;;;;;5.20;2.67;;;4.90;84.70;;;;;;5047955;28;20461;-78
2021/03/16 06:50:51;;;;;;;7.37;3.20;;;4.90;85.00;;;;;;5028527;28;20471;-78
2021/03/16 06:53:20;;;;;;;9.27;3.70;;;5.00;85.00;;;;;;5039117;28;20464;-78
2021/03/16 06:55:56;;;;;;;7.73;3.20;;;4.90;84.70;;;;;;5039968;28;20522;-77
2021/03/16 06:58:26;;;;;;;7.50;3.30;;;4.90;85.00;;;;;;5040515;28;20433;-77
2021/03/16 07:01:06;;;;;;;6.47;2.83;;;5.00;84.90;;;;;;5042338;28;20435;-76
2021/03/16 07:03:32;;;;;;;8.10;3.30;;;4.90;84.90;;;;;;5033764;28;20447;-76
2021/03/16 07:06:15;;;;;;;12.50;4.37;;;4.90;85.30;;;;;;5041995;28;20434;-77
2021/03/16 07:08:42;;;;;;;6.10;3.03;;;4.80;85.60;;;;;;5034593;28;20462;-77
2021/03/16 07:11:09;;;;;;;5.53;2.80;;;4.80;86.30;;;;;;5041368;28;20519;-77
2021/03/16 07:13:36;;;;;;;6.67;3.93;;;4.90;87.00;;;;;;5030686;28;20459;-76
2021/03/16 07:16:03;;;;;;;9.03;5.00;;;4.80;87.10;;;;;;5044518;28;20427;-76
2021/03/16 07:18:34;;;;;;;8.43;3.23;;;4.80;87.40;;;;;;5047753;28;20416;-76
2021/03/16 07:21:07;;;;;;;9.53;4.30;;;4.80;88.00;;;;;;5038205;28;20475;-76
2021/03/16 07:23:41;;;;;;;7.23;3.60;;;4.80;88.00;;;;;;5038972;28;20464;-76
2021/03/16 07:26:07;;;;;;;12.73;3.43;;;4.80;88.30;;;;;;5057046;28;20466;-78
2021/03/16 07:28:33;;;;;;;7.00;3.10;;;4.70;88.70;;;;;;5046263;28;20428;-75
2021/03/16 07:31:00;;;;;;;19.60;3.17;;;4.60;90.00;;;;;;5063383;28;20528;-77
2021/03/16 07:33:28;;;;;;;6.40;2.73;;;4.50;90.50;;;;;;5052147;28;20484;-76
2021/03/16 07:35:55;;;;;;;7.80;3.03;;;4.40;91.40;;;;;;5033453;28;20442;-76
2021/03/16 07:38:22;;;;;;;8.03;3.40;;;4.30;92.10;;;;;;5036764;28;20466;-76
2021/03/16 07:40:49;;;;;;;8.87;3.50;;;4.40;92.60;;;;;;5033417;28;20446;-76
2021/03/16 07:43:15;;;;;;;12.93;4.90;;;4.40;92.60;;;;;;5031807;28;20521;-77
2021/03/16 07:45:41;;;;;;;13.23;3.83;;;4.40;92.80;;;;;;5044061;28;20928;-76
2021/03/16 07:48:20;;;;;;;14.43;4.00;;;4.40;92.30;;;;;;5029709;28;20822;-77
2021/03/16 07:50:46;;;;;;;15.13;3.73;;;4.50;91.50;;;;;;5049041;28;20212;-76
2021/03/16 07:53:28;;;;;;;5.00;2.80;;;4.70;91.60;;;;;;5042405;28;20443;-78
2021/03/16 07:56:05;;;;;;;12.50;3.70;;;4.90;91.10;;;;;;5033717;28;20419;-77
2021/03/16 07:58:30;;;;;;;7.80;2.80;;;5.10;90.50;;;;;;5040655;28;20436;-76
2021/03/16 08:01:06;;;;;;;6.80;3.20;;;5.20;89.30;;;;;;5033096;28;20489;-76
2021/03/16 08:03:32;;;;;;;7.33;3.10;;;5.10;88.70;;;;;;5043718;28;20209;-77
2021/03/16 08:05:58;;;;;;;4.13;2.53;;;5.20;88.40;;;;;;5034579;28;21144;-77
2021/03/16 08:08:23;;;;;;;9.20;3.20;;;5.20;87.70;;;;;;5049080;28;20285;-77
2021/03/16 08:10:49;;;;;;;5.90;2.87;;;5.30;87.00;;;;;;5041025;28;20296;-77
2021/03/16 08:13:17;;;;;;;12.70;3.40;;;5.40;86.60;;;;;;5018530;28;20209;-78
2021/03/16 08:15:45;;;;;;;11.23;3.67;;;5.30;86.20;;;;;;5031514;28;20184;-78
2021/03/16 08:18:12;;;;;;;6.90;3.47;;;5.50;87.40;;;;;;5035991;28;20455;-78
2021/03/16 08:20:38;;;;;;;9.73;3.63;;;5.50;86.80;;;;;;5039831;28;20784;-77
2021/03/16 08:23:10;;;;;;;16.63;6.47;;;5.60;85.50;;;;;;5020646;28;21012;-79
2021/03/16 08:25:36;;;;;;;15.70;4.23;;;5.60;85.60;;;;;;5035653;28;20435;-75
2021/03/16 08:28:07;;;;;;;11.70;4.73;;;5.70;84.60;;;;;;5037227;28;20433;-77
2021/03/16 08:30:38;;;;;;;10.60;3.50;;;5.70;84.10;;;;;;5055950;28;20957;-77
2021/03/16 08:33:11;;;;;;;9.80;4.07;;;5.60;83.00;;;;;;5035664;28;20462;-77
2021/03/16 08:35:50;;;;;;;15.60;3.87;;;5.60;83.80;;;;;;5034945;28;20606;-77
2021/03/16 08:38:30;;;;;;;8.43;3.87;;;5.70;84.10;;;;;;5047647;28;20438;-78
2021/03/16 08:41:15;;;;;;;9.60;4.10;;;5.60;83.00;;;;;;5036299;28;20453;-77
2021/03/16 08:43:47;;;;;;;8.80;3.90;;;5.50;83.60;;;;;;5036869;28;20977;-78
2021/03/16 08:46:13;;;;;;;8.00;3.13;;;5.60;83.40;;;;;;5040109;28;20973;-76
2021/03/16 08:48:42;;;;;;;8.40;3.20;;;5.70;83.70;;;;;;5044048;28;20475;-76
2021/03/16 08:51:11;;;;;;;6.93;3.13;;;5.80;84.10;;;;;;5031136;28;20480;-78
2021/03/16 08:53:36;;;;;;;9.47;3.83;;;5.90;82.50;;;;;;5028196;28;20538;-79
2021/03/16 08:56:03;;;;;;;8.97;3.13;;;5.80;81.50;;;;;;5028514;28;20530;-77
2021/03/16 08:58:28;;;;;;;8.10;3.77;;;5.80;81.70;;;;;;5032299;28;20196;-78
2021/03/16 09:00:54;;;;;;;6.63;3.47;;;5.80;81.90;;;;;;5037003;28;20439;-78
2021/03/16 09:03:30;;;;;;;15.50;4.20;;;6.00;82.50;;;;;;5043213;28;20236;-78
2021/03/16 09:05:56;;;;;;;9.50;4.00;;;6.20;82.20;;;;;;5028893;28;20242;-78
2021/03/16 09:08:22;;;;;;;11.73;4.07;;;6.20;81.80;;;;;;5049039;28;20446;-78
2021/03/16 09:10:48;;;;;;;8.60;3.23;;;6.10;81.70;;;;;;5041453;28;20490;-76
2021/03/16 09:13:26;;;;;;;10.83;3.43;;;6.00;81.80;;;;;;5031670;28;20589;-77
2021/03/16 09:15:51;;;;;;;9.73;4.43;;;5.90;82.40;;;;;;5031757;28;20457;-77
2021/03/16 09:18:17;;;;;;;12.13;3.90;;;5.80;83.80;;;;;;5041589;28;20427;-78
2021/03/16 09:20:43;;;;;;;7.40;3.40;;;5.80;84.30;;;;;;5048816;28;20192;-71
2021/03/16 09:23:13;;;;;;;10.07;3.77;;;5.70;85.20;;;;;;5028507;28;20280;-70
2021/03/16 09:25:44;;;;;;;7.73;3.60;;;5.60;85.90;;;;;;5034608;28;20269;-73
2021/03/16 09:28:15;;;;;;;9.47;4.27;;;5.40;86.90;;;;;;5028172;28;20423;-72
2021/03/16 09:30:54;;;;;;;10.10;3.90;;;5.10;88.70;;;;;;5042610;28;20986;-74
2021/03/16 09:33:22;;;;;;;8.47;4.40;;;5.00;90.50;;;;;;5039620;28;20855;-72
2021/03/16 09:35:59;;;;;;;8.47;4.60;;;5.10;90.90;;;;;;5031799;28;20423;-72
2021/03/16 09:38:26;;;;;;;11.67;4.20;;;5.10;90.10;;;;;;5047875;28;20513;-72
2021/03/16 09:40:52;;;;;;;11.60;4.40;;;5.20;90.10;;;;;;5040840;28;20441;-72
2021/03/16 09:43:22;;;;;;;6.40;3.93;;;5.20;90.40;;;;;;5052072;28;20502;-72
2021/03/16 09:45:56;;;;;;;13.63;3.87;;;5.40;90.90;;;;;;5050368;28;20431;-74
2021/03/16 09:48:22;;;;;;;8.53;4.17;;;5.40;90.10;;;;;;5036535;28;20493;-73
2021/03/16 09:50:49;;;;;;;9.50;4.23;;;5.40;90.50;;;;;;5030794;28;20582;-73
2021/03/16 09:53:16;;;;;;;6.00;3.33;;;5.60;90.60;;;;;;5032312;28;21009;-74
2021/03/16 09:55:43;;;;;;;5.80;3.93;;;5.60;90.70;;;;;;5038660;28;20494;-74
2021/03/16 09:58:26;;;;;;;13.13;3.73;;;5.40;89.50;;;;;;5036002;28;20515;-75
2021/03/16 10:00:53;;;;;;;7.60;3.83;;;5.10;90.70;;;;;;5040573;28;20431;-74
2021/03/16 10:03:20;;;;;;;15.57;4.83;;;5.10;91.20;;;;;;5033379;28;21286;-74
2021/03/16 10:05:47;;;;;;;9.27;4.50;;;5.10;91.20;;;;;;5019075;28;20983;-72
2021/03/16 10:08:26;;;;;;;17.33;6.33;;;5.00;91.30;;;;;;5050140;28;20455;-74
2021/03/16 10:10:53;;;;;;;19.73;4.60;;;5.00;91.30;;;;;;5033806;28;20467;-74
2021/03/16 10:13:36;;;;;;;11.37;4.80;;;5.00;91.60;;;;;;5046069;28;20460;-73
2021/03/16 10:16:12;;;;;;;10.70;4.93;;;4.80;92.40;;;;;;5043603;28;20431;-75
2021/03/16 10:18:48;;;;;;;14.93;5.40;;;4.90;92.90;;;;;;5025623;28;20440;-74
2021/03/16 10:21:14;;;;;;;10.23;4.40;;;5.00;93.00;;;;;;5041176;28;20798;-76
2021/03/16 10:23:40;;;;;;;8.70;4.70;;;5.00;92.40;;;;;;5043936;28;20464;-74
2021/03/16 10:26:08;;;;;;;12.13;5.07;;;5.40;92.40;;;;;;5051554;28;20438;-72
2021/03/16 10:28:43;;;;;;;13.83;4.87;;;5.60;91.40;;;;;;5046790;28;20447;-74
2021/03/16 10:31:25;;;;;;;9.60;4.90;;;5.80;89.60;;;;;;5052808;28;20953;-74
2021/03/16 10:33:52;;;;;;;15.97;5.63;;;5.80;89.00;;;;;;5053005;28;20468;-75
2021/03/16 10:36:20;;;;;;;13.50;5.10;;;5.80;89.20;;;;;;5040979;28;20430;-76
2021/03/16 10:38:50;;;;;;;12.40;4.80;;;6.10;89.30;;;;;;5040655;28;20431;-73
2021/03/16 10:41:20;;;;;;;11.00;5.47;;;6.10;87.60;;;;;;5045826;28;20571;-75
2021/03/16 10:43:46;;;;;;;14.27;4.90;;;6.30;86.90;;;;;;5036968;28;20447;-72
2021/03/16 10:46:12;;;;;;;14.07;4.17;;;6.50;86.30;;;;;;5055075;28;20482;-74
2021/03/16 10:48:37;;;;;;;8.60;4.00;;;6.50;83.60;;;;;;5043895;28;20450;-74
2021/03/16 10:51:04;;;;;;;10.90;4.97;;;6.40;83.40;;;;;;5044810;28;20672;-75
2021/03/16 10:53:30;;;;;;;11.70;4.97;;;6.40;84.90;;;;;;5053483;28;20695;-74
2021/03/16 10:55:56;;;;;;;11.07;4.33;;;6.30;82.70;;;;;;5047892;28;20419;-75
2021/03/16 10:58:22;;;;;;;12.30;4.43;;;6.40;81.50;;;;;;5042649;28;20757;-74
2021/03/16 11:00:48;;;;;;;13.63;4.33;;;6.30;81.20;;;;;;5047754;28;20476;-73
2021/03/16 11:03:14;;;;;;;10.63;3.80;;;6.20;81.50;;;;;;5053959;28;20278;-74
2021/03/16 11:05:40;;;;;;;11.57;3.50;;;6.20;80.00;;;;;;5024870;28;20430;-74
2021/03/16 11:08:06;;;;;;;10.33;3.70;;;6.20;79.50;;;;;;5051166;28;20184;-75
2021/03/16 11:10:32;;;;;;;8.33;3.80;;;6.20;79.90;;;;;;5046326;28;20213;-76
2021/03/16 11:12:58;;;;;;;6.40;3.53;;;6.20;79.90;;;;;;5030834;28;21381;-75
2021/03/16 11:15:24;;;;;;;11.90;4.40;;;6.30;79.60;;;;;;5043927;28;20427;-75
2021/03/16 11:17:49;;;;;;;12.60;5.77;;;6.30;80.00;;;;;;5038452;28;20185;-75
2021/03/16 11:20:16;;;;;;;15.50;5.37;;;6.40;78.30;;;;;;5035402;28;21034;-76
2021/03/16 11:22:42;;;;;;;8.53;3.67;;;6.50;79.70;;;;;;5030084;28;20444;-76
2021/03/16 11:25:09;;;;;;;14.80;5.10;;;6.70;79.70;;;;;;5040841;28;20977;-73
2021/03/16 11:27:35;;;;;;;9.27;4.47;;;6.90;78.40;;;;;;5037827;28;20522;-73
2021/03/16 11:30:06;;;;;;;5.70;3.53;;;6.80;77.70;;;;;;5032296;28;20547;-75
2021/03/16 11:32:32;;;;;;;13.13;4.90;;;6.80;77.10;;;;;;5042032;28;20411;-73
2021/03/16 11:34:58;;;;;;;17.43;4.87;;;6.80;77.40;;;;;;5060220;28;20434;-75
2021/03/16 11:37:24;;;;;;;7.00;3.77;;;6.80;76.40;;;;;;5045190;28;21193;-75
2021/03/16 11:39:50;;;;;;;9.63;4.03;;;6.80;77.40;;;;;;5057246;28;20823;-75
2021/03/16 11:42:17;;;;;;;9.57;4.00;;;6.70;75.70;;;;;;5051729;28;20527;-75
2021/03/16 11:44:43;;;;;;;7.10;3.10;;;6.60;75.20;;;;;;5045748;28;20447;-75
2021/03/16 11:47:10;;;;;;;7.10;3.50;;;6.50;76.10;;;;;;5049460;28;20520;-73
2021/03/16 11:49:35;;;;;;;9.90;3.40;;;6.20;76.80;;;;;;5041296;28;20447;-74
2021/03/16 11:52:01;;;;;;;7.70;3.63;;;6.10;79.30;;;;;;5046434;28;20891;-75
2021/03/16 11:54:27;;;;;;;11.87;3.63;;;6.20;79.90;;;;;;5028806;28;20883;-75
2021/03/16 11:56:53;;;;;;;10.53;3.70;;;6.10;79.70;;;;;;5047028;28;20195;-75
2021/03/16 11:59:18;;;;;;;11.50;3.73;;;6.10;80.80;;;;;;5048519;28;20548;-75
2021/03/16 12:01:44;;;;;;;6.00;3.00;;;6.10;80.50;;;;;;5048525;28;20326;-76
2021/03/16 12:04:10;;;;;;;13.43;3.43;;;6.10;79.30;;;;;;5029275;28;20268;-74
2021/03/16 12:06:36;;;;;;;11.10;3.63;;;6.10;77.30;;;;;;5030323;28;20532;-73
2021/03/16 12:09:02;;;;;;;14.97;4.13;;;6.10;78.00;;;;;;5042091;28;20587;-75
2021/03/16 12:11:28;;;;;;;10.90;4.03;;;6.30;77.40;;;;;;5021705;28;20299;-72
2021/03/16 12:13:53;;;;;;;5.80;3.13;;;6.40;76.20;;;;;;5016155;28;20551;-75
2021/03/16 12:16:19;;;;;;;12.23;3.97;;;6.50;74.80;;;;;;5029365;28;21051;-77
2021/03/16 12:18:45;;;;;;;9.00;3.73;;;6.80;73.30;;;;;;5039725;28;20193;-74
2021/03/16 12:21:10;;;;;;;6.60;3.70;;;7.00;74.00;;;;;;5027844;28;20185;-75
2021/03/16 12:23:46;;;;;;;7.70;3.60;;;7.10;71.70;;;;;;5024924;28;20205;-75
2021/03/16 12:26:12;;;;;;;7.80;2.80;;;7.30;71.30;;;;;;5026938;28;20652;-75
2021/03/16 12:28:38;;;;;;;15.63;3.37;;;7.50;69.70;;;;;;5030075;28;20431;-72
2021/03/16 12:31:04;;;;;;;8.47;3.80;;;7.70;70.70;;;;;;5029727;28;20212;-74
2021/03/16 12:33:29;;;;;;;8.50;3.50;;;7.80;67.30;;;;;;5048009;28;20307;-73
2021/03/16 12:35:55;;;;;;;5.50;2.80;;;7.90;67.00;;;;;;5046299;28;20187;-74
2021/03/16 12:38:21;;;;;;;9.03;3.30;;;8.00;66.00;;;;;;5045366;28;20561;-75
2021/03/16 12:40:47;;;;;;;7.73;3.50;;;7.70;62.20;;;;;;5045466;28;20184;-74
2021/03/16 12:43:13;;;;;;;7.53;3.70;;;7.50;63.90;;;;;;5027365;28;20228;-74
2021/03/16 12:45:42;;;;;;;6.23;2.83;;;7.60;64.80;;;;;;5044642;28;20639;-75
2021/03/16 12:48:08;;;;;;;9.83;3.70;;;7.40;62.90;;;;;;5047297;28;20431;-75
2021/03/16 12:50:34;;;;;;;7.70;3.43;;;7.30;63.80;;;;;;5042458;28;20471;-73
2021/03/16 12:53:00;;;;;;;6.73;3.00;;;7.40;63.70;;;;;;5027568;28;20452;-73
2021/03/16 12:55:26;;;;;;;5.63;3.07;;;7.40;63.20;;;;;;5026775;28;20181;-72
2021/03/16 12:57:51;;;;;;;8.50;3.77;;;7.30;62.60;;;;;;5027769;28;20683;-76
2021/03/16 13:00:18;;;;;;;5.70;2.77;;;7.20;60.70;;;;;;5026970;28;20185;-74